Time;durP1;ratioP1;P1;durP2;ratioP2;P2;SDS_P1;SDS_P2;PMS_P1;PMS_P2;Temp;Humidity;BMP_temperature;BMP_pressure;BME280_temperature;BME280_humidity;BME280_pressure;Samples;Min_cycle;Max_cycle;Signal;HPM_P1;HPM_P2
2021/09/25 00:01:55;;;;;;;5.45;4.00;;;17.30;99.90;;;;;;5034899;28;20150;-80
2021/09/25 00:04:20;;;;;;;5.38;3.88;;;17.40;99.90;;;;;;5035002;28;20342;-83
2021/09/25 00:06:46;;;;;;;4.68;4.18;;;17.40;99.90;;;;;;5034983;28;20432;-82
2021/09/25 00:09:12;;;;;;;5.47;4.32;;;17.30;99.90;;;;;;5034743;28;20025;-82
2021/09/25 00:11:37;;;;;;;5.18;3.70;;;17.40;99.90;;;;;;5016686;28;20029;-81
2021/09/25 00:14:03;;;;;;;4.00;3.60;;;17.40;99.90;;;;;;5016487;28;20030;-81
2021/09/25 00:16:29;;;;;;;5.32;3.85;;;17.40;99.90;;;;;;5016174;28;20084;-81
2021/09/25 00:18:56;;;;;;;7.18;3.50;;;17.40;99.90;;;;;;5016636;28;20045;-82
2021/09/25 00:21:21;;;;;;;4.70;3.10;;;17.40;99.90;;;;;;5017030;28;20397;-83
2021/09/25 00:23:47;;;;;;;4.60;3.53;;;17.40;99.90;;;;;;5034018;28;20075;-82
2021/09/25 00:26:12;;;;;;;5.22;3.53;;;17.40;99.90;;;;;;5016662;28;20030;-80
2021/09/25 00:28:38;;;;;;;4.63;3.72;;;17.50;99.90;;;;;;5034310;28;20083;-82
2021/09/25 00:31:04;;;;;;;4.63;3.45;;;17.50;99.90;;;;;;5015101;28;20026;-80
2021/09/25 00:33:29;;;;;;;6.30;3.70;;;17.40;99.90;;;;;;5017164;28;20026;-83
2021/09/25 00:35:55;;;;;;;4.53;3.38;;;17.50;99.90;;;;;;5016543;28;20044;-80
2021/09/25 00:38:20;;;;;;;5.43;3.50;;;17.50;99.90;;;;;;5016438;28;20462;-83
2021/09/25 00:40:46;;;;;;;3.70;3.28;;;17.40;99.90;;;;;;5034336;28;20072;-82
2021/09/25 00:43:12;;;;;;;4.93;3.22;;;17.50;99.90;;;;;;5016356;28;20478;-84
2021/09/25 00:45:37;;;;;;;4.25;3.38;;;17.50;99.90;;;;;;5016178;28;20028;-81
2021/09/25 00:48:03;;;;;;;3.47;2.90;;;17.50;99.90;;;;;;5015934;28;20021;-83
2021/09/25 00:50:29;;;;;;;5.28;3.00;;;17.50;99.90;;;;;;5017006;28;20021;-82
2021/09/25 00:52:54;;;;;;;3.83;3.20;;;17.50;99.90;;;;;;5015645;28;20017;-83
2021/09/25 00:55:22;;;;;;;3.25;2.90;;;17.40;99.90;;;;;;5016510;28;20112;-82
2021/09/25 00:57:56;;;;;;;3.25;2.95;;;17.50;99.90;;;;;;5016451;28;20363;-82
2021/09/25 01:00:22;;;;;;;3.78;3.10;;;17.40;99.90;;;;;;5015653;28;20469;-83
2021/09/25 01:02:48;;;;;;;3.30;2.97;;;17.40;99.90;;;;;;5016260;28;20036;-83
2021/09/25 01:05:17;;;;;;;4.57;3.17;;;17.50;99.90;;;;;;5033931;28;20393;-83
2021/09/25 01:07:43;;;;;;;5.63;3.65;;;17.50;99.90;;;;;;5016010;28;20091;-81
2021/09/25 01:10:09;;;;;;;6.80;3.80;;;17.40;99.90;;;;;;5015594;28;20026;-83
2021/09/25 01:12:35;;;;;;;5.25;3.70;;;17.40;99.90;;;;;;5033643;28;20032;-81
2021/09/25 01:15:05;;;;;;;4.93;3.20;;;17.40;99.90;;;;;;5015022;28;20025;-81
2021/09/25 01:17:31;;;;;;;3.67;3.22;;;17.40;99.90;;;;;;5033701;28;20108;-81
2021/09/25 01:19:56;;;;;;;5.45;3.00;;;17.40;99.90;;;;;;5032639;28;20537;-82
2021/09/25 01:22:23;;;;;;;3.78;3.00;;;17.40;99.90;;;;;;5016196;28;20347;-82
2021/09/25 01:24:49;;;;;;;3.13;2.83;;;17.30;99.90;;;;;;5016003;28;20053;-82
2021/09/25 01:27:14;;;;;;;5.70;3.08;;;17.40;99.90;;;;;;5014759;28;20059;-83
2021/09/25 01:29:40;;;;;;;3.85;2.80;;;17.40;99.90;;;;;;5015708;28;20037;-83
2021/09/25 01:32:06;;;;;;;3.80;2.60;;;17.40;99.90;;;;;;5015260;28;20021;-83
2021/09/25 01:34:32;;;;;;;4.38;2.95;;;17.40;99.90;;;;;;5015465;28;20021;-84
2021/09/25 01:36:57;;;;;;;3.70;3.30;;;17.40;99.90;;;;;;5032801;28;20091;-82
2021/09/25 01:39:23;;;;;;;4.50;3.00;;;17.30;99.90;;;;;;5033641;28;20075;-83
2021/09/25 01:41:49;;;;;;;4.22;3.63;;;17.40;99.90;;;;;;5013796;28;20037;-82
2021/09/25 01:44:14;;;;;;;4.63;3.70;;;17.40;99.90;;;;;;5015322;28;20022;-82
2021/09/25 01:46:40;;;;;;;4.72;3.22;;;17.40;99.90;;;;;;5015131;28;20045;-83
2021/09/25 01:49:06;;;;;;;4.43;3.92;;;17.30;99.90;;;;;;5032059;28;20865;-81
2021/09/25 01:51:32;;;;;;;5.00;4.05;;;17.30;99.90;;;;;;5033205;28;20446;-79
2021/09/25 01:53:58;;;;;;;5.40;4.28;;;17.40;99.90;;;;;;5014823;28;20030;-80
2021/09/25 01:56:24;;;;;;;5.55;4.65;;;17.30;99.90;;;;;;5014725;28;20498;-82
2021/09/25 01:58:50;;;;;;;6.00;4.38;;;17.40;99.90;;;;;;5015628;28;20596;-83
2021/09/25 02:01:15;;;;;;;5.10;4.60;;;17.30;99.90;;;;;;5014568;28;20056;-82
2021/09/25 02:03:41;;;;;;;5.53;4.28;;;17.30;99.90;;;;;;5032362;28;20101;-82
2021/09/25 02:06:11;;;;;;;6.85;5.25;;;17.30;99.90;;;;;;5014792;28;20040;-81
2021/09/25 02:08:38;;;;;;;6.53;5.57;;;17.30;99.90;;;;;;5033301;28;20462;-81
2021/09/25 02:11:05;;;;;;;5.95;4.93;;;17.30;99.90;;;;;;5014153;28;20048;-82
2021/09/25 02:13:32;;;;;;;5.68;4.88;;;17.30;99.90;;;;;;5015072;28;20565;-81
2021/09/25 02:15:58;;;;;;;5.75;4.82;;;17.30;99.90;;;;;;5014030;28;20041;-81
2021/09/25 02:18:25;;;;;;;7.43;5.55;;;17.30;99.90;;;;;;5014623;28;20029;-81
2021/09/25 02:20:51;;;;;;;6.20;5.13;;;17.30;99.90;;;;;;5032616;28;20120;-80
2021/09/25 02:23:17;;;;;;;7.22;5.60;;;17.20;99.90;;;;;;5031777;28;20071;-82
2021/09/25 02:25:43;;;;;;;7.30;5.65;;;17.30;99.90;;;;;;5015415;28;20018;-81
2021/09/25 02:28:08;;;;;;;5.47;4.88;;;17.30;99.90;;;;;;5014615;28;20033;-80
2021/09/25 02:30:34;;;;;;;7.85;5.43;;;17.20;99.90;;;;;;5014270;28;20164;-80
2021/09/25 02:33:00;;;;;;;5.40;4.88;;;17.30;99.90;;;;;;5014572;28;20013;-80
2021/09/25 02:35:25;;;;;;;8.30;5.88;;;17.30;99.90;;;;;;5014952;28;20057;-82
2021/09/25 02:37:52;;;;;;;6.55;4.35;;;17.20;99.90;;;;;;5014064;28;20025;-82
2021/09/25 02:40:20;;;;;;;5.88;4.80;;;17.20;99.90;;;;;;5014442;28;20037;-81
2021/09/25 02:42:46;;;;;;;6.38;5.05;;;17.20;99.90;;;;;;5015217;28;20036;-81
2021/09/25 02:45:13;;;;;;;6.45;5.40;;;17.20;99.90;;;;;;5013962;28;20017;-81
2021/09/25 02:47:39;;;;;;;6.97;5.55;;;17.20;99.90;;;;;;5014640;28;20108;-82
2021/09/25 02:50:07;;;;;;;6.07;5.40;;;17.20;99.90;;;;;;5014392;28;20021;-81
2021/09/25 02:52:32;;;;;;;7.78;5.25;;;17.10;99.90;;;;;;5015213;28;20398;-82
2021/09/25 02:54:58;;;;;;;8.95;5.50;;;17.10;99.90;;;;;;5018629;28;20017;-83
2021/09/25 02:57:23;;;;;;;6.22;5.40;;;17.10;99.90;;;;;;5018262;28;20422;-82
2021/09/25 02:59:49;;;;;;;8.20;6.10;;;17.10;99.90;;;;;;5035610;28;20052;-81
2021/09/25 03:02:15;;;;;;;7.15;6.20;;;17.00;99.90;;;;;;5018207;28;20469;-81
2021/09/25 03:04:40;;;;;;;7.90;6.25;;;17.00;99.90;;;;;;5018549;28;20064;-81
2021/09/25 03:07:08;;;;;;;8.63;6.28;;;17.00;99.90;;;;;;5035205;28;20060;-82
2021/09/25 03:09:33;;;;;;;6.80;5.55;;;16.90;99.90;;;;;;5019034;28;20021;-81
2021/09/25 03:11:59;;;;;;;6.43;5.30;;;16.90;99.90;;;;;;5017959;28;20025;-81
2021/09/25 03:14:25;;;;;;;6.57;5.57;;;16.90;99.90;;;;;;5017747;28;20037;-82
2021/09/25 03:16:50;;;;;;;8.02;5.18;;;16.90;99.90;;;;;;5018202;28;20028;-80
2021/09/25 03:19:16;;;;;;;7.85;5.53;;;16.90;99.90;;;;;;5035085;28;20045;-81
2021/09/25 03:21:41;;;;;;;8.30;6.22;;;16.90;99.90;;;;;;5035867;28;20039;-80
2021/09/25 03:24:07;;;;;;;7.68;5.15;;;16.90;99.90;;;;;;5017905;28;20057;-81
2021/09/25 03:26:33;;;;;;;6.55;5.45;;;16.90;99.90;;;;;;5017317;28;20017;-80
2021/09/25 03:28:58;;;;;;;6.70;5.28;;;16.80;99.90;;;;;;5017850;28;20026;-80
2021/09/25 03:31:24;;;;;;;8.15;6.45;;;16.90;99.90;;;;;;5018351;28;20029;-80
2021/09/25 03:33:49;;;;;;;6.93;5.60;;;16.90;99.90;;;;;;5016836;28;20129;-81
2021/09/25 03:36:15;;;;;;;7.75;6.75;;;16.90;99.90;;;;;;5017732;28;20040;-81
2021/09/25 03:38:41;;;;;;;8.90;6.75;;;16.90;99.90;;;;;;5017835;28;20032;-81
2021/09/25 03:41:06;;;;;;;8.75;6.60;;;16.90;99.90;;;;;;5016804;28;20034;-82
2021/09/25 03:43:32;;;;;;;7.55;6.32;;;16.90;99.90;;;;;;5035606;28;20026;-82
2021/09/25 03:45:58;;;;;;;6.88;5.90;;;16.90;99.90;;;;;;5017436;28;20569;-82
2021/09/25 03:48:23;;;;;;;8.40;6.20;;;16.90;99.90;;;;;;5017078;28;20105;-82
2021/09/25 03:50:49;;;;;;;7.68;5.80;;;16.90;99.90;;;;;;5035638;28;20129;-82
2021/09/25 03:53:15;;;;;;;7.40;6.10;;;16.90;99.90;;;;;;5017160;28;20026;-81
2021/09/25 03:55:40;;;;;;;7.75;6.88;;;16.90;99.90;;;;;;5017067;28;20470;-82
2021/09/25 03:58:06;;;;;;;6.90;5.88;;;16.90;99.90;;;;;;5017366;28;20026;-82
2021/09/25 04:00:31;;;;;;;8.18;6.00;;;16.90;99.90;;;;;;5017498;28;20041;-81
2021/09/25 04:02:57;;;;;;;9.68;7.22;;;16.90;99.90;;;;;;5016443;28;20116;-80
2021/09/25 04:05:22;;;;;;;7.70;6.45;;;16.90;99.90;;;;;;5016600;28;20026;-81
2021/09/25 04:07:49;;;;;;;8.57;6.80;;;16.90;99.90;;;;;;5035164;28;20044;-82
2021/09/25 04:10:16;;;;;;;8.70;7.18;;;16.90;99.90;;;;;;5034204;28;20053;-80
2021/09/25 04:12:42;;;;;;;7.95;7.13;;;16.90;99.90;;;;;;5017404;28;20116;-80
2021/09/25 04:15:09;;;;;;;9.45;7.13;;;16.90;99.90;;;;;;5016866;28;20108;-79
2021/09/25 04:17:37;;;;;;;10.20;6.68;;;16.90;99.90;;;;;;5016513;28;20017;-80
2021/09/25 04:20:05;;;;;;;8.50;6.80;;;16.90;99.90;;;;;;5016336;28;20041;-80
2021/09/25 04:22:30;;;;;;;8.07;6.47;;;16.90;99.90;;;;;;5016433;28;20501;-79
2021/09/25 04:24:56;;;;;;;7.97;7.00;;;16.90;99.90;;;;;;5034048;28;20018;-80
2021/09/25 04:27:22;;;;;;;9.20;7.53;;;16.90;99.90;;;;;;5017082;28;20513;-79
2021/09/25 04:29:47;;;;;;;9.90;7.03;;;16.90;99.90;;;;;;5016238;28;20026;-79
2021/09/25 04:32:13;;;;;;;8.23;6.85;;;16.90;99.90;;;;;;5034246;28;20406;-79
2021/09/25 04:34:38;;;;;;;9.43;7.25;;;16.90;99.90;;;;;;5034760;28;20378;-81
2021/09/25 04:37:04;;;;;;;11.30;7.30;;;16.90;99.90;;;;;;5015863;28;20367;-81
2021/09/25 04:39:29;;;;;;;9.93;8.02;;;16.90;99.90;;;;;;5034779;28;20022;-80
2021/09/25 04:41:55;;;;;;;7.85;6.95;;;16.90;99.90;;;;;;5016516;28;20088;-81
2021/09/25 04:44:21;;;;;;;8.45;7.05;;;16.90;99.90;;;;;;5016192;28;20021;-83
2021/09/25 04:46:47;;;;;;;7.82;6.38;;;16.80;99.90;;;;;;5016589;28;20036;-80
2021/09/25 04:49:14;;;;;;;8.68;7.22;;;16.90;99.90;;;;;;5016201;28;20028;-82
2021/09/25 04:51:39;;;;;;;10.50;7.72;;;16.90;99.90;;;;;;5033684;28;20075;-81
2021/09/25 04:54:05;;;;;;;9.23;7.10;;;16.90;99.90;;;;;;5015704;28;20429;-81
2021/09/25 04:56:34;;;;;;;10.27;7.30;;;16.90;99.90;;;;;;5016646;28;20025;-81
2021/09/25 04:59:00;;;;;;;8.07;7.18;;;16.90;99.90;;;;;;5015297;28;20033;-82
2021/09/25 05:01:25;;;;;;;7.32;6.53;;;16.90;99.90;;;;;;5016521;28;20037;-82
2021/09/25 05:03:51;;;;;;;9.52;7.13;;;16.90;99.90;;;;;;5016300;28;20108;-82
2021/09/25 05:06:17;;;;;;;8.05;6.65;;;16.80;99.90;;;;;;5015223;28;20060;-80
2021/09/25 05:08:43;;;;;;;9.13;7.50;;;16.90;99.90;;;;;;5016398;28;20466;-82
2021/09/25 05:11:08;;;;;;;7.75;6.65;;;16.80;99.90;;;;;;5015340;28;20029;-81
2021/09/25 05:13:34;;;;;;;11.85;7.60;;;16.80;99.90;;;;;;5033230;28;20018;-82
2021/09/25 05:16:00;;;;;;;9.20;7.22;;;16.80;99.90;;;;;;5015645;28;20496;-82
2021/09/25 05:18:25;;;;;;;8.80;7.03;;;16.80;99.90;;;;;;5016139;28;20033;-81
2021/09/25 05:20:51;;;;;;;12.02;7.15;;;16.90;99.90;;;;;;5033102;28;20083;-81
2021/09/25 05:23:18;;;;;;;8.00;6.60;;;16.80;99.90;;;;;;5015585;28;20109;-82
2021/09/25 05:25:43;;;;;;;9.05;6.50;;;16.80;99.90;;;;;;5016109;28;20072;-82
2021/09/25 05:28:10;;;;;;;10.32;6.72;;;16.90;99.90;;;;;;5014900;28;20068;-81
2021/09/25 05:30:36;;;;;;;10.18;7.18;;;16.80;99.90;;;;;;5016148;28;20089;-81
2021/09/25 05:33:02;;;;;;;10.57;7.50;;;16.80;99.90;;;;;;5014563;28;20077;-81
2021/09/25 05:35:28;;;;;;;7.40;6.63;;;16.80;99.90;;;;;;5015885;28;20052;-81
2021/09/25 05:37:54;;;;;;;7.78;6.65;;;16.80;99.90;;;;;;5015079;28;20116;-80
2021/09/25 05:40:20;;;;;;;9.10;6.95;;;16.80;99.90;;;;;;5015411;28;20040;-81
2021/09/25 05:42:45;;;;;;;7.55;6.22;;;16.80;99.90;;;;;;5033516;28;20022;-81
2021/09/25 05:45:11;;;;;;;8.20;7.00;;;16.80;99.90;;;;;;5015308;28;20453;-81
2021/09/25 05:47:37;;;;;;;8.43;6.55;;;16.80;99.90;;;;;;5016210;28;20135;-82
2021/09/25 05:50:04;;;;;;;7.60;5.78;;;16.80;99.90;;;;;;5041467;28;20057;-80
2021/09/25 05:52:29;;;;;;;8.43;6.38;;;16.80;99.90;;;;;;5033328;28;20028;-85
2021/09/25 05:54:55;;;;;;;11.10;7.40;;;16.80;99.90;;;;;;5023235;28;20018;-84
2021/09/25 05:57:22;;;;;;;8.70;7.13;;;16.80;99.90;;;;;;5052904;28;20087;-81
2021/09/25 05:59:47;;;;;;;8.68;6.35;;;16.80;99.90;;;;;;5035045;28;20211;-80
2021/09/25 06:02:13;;;;;;;8.82;7.35;;;16.80;99.90;;;;;;5034233;28;20028;-80
2021/09/25 06:04:38;;;;;;;7.18;6.47;;;16.80;99.90;;;;;;5052942;28;20021;-82
2021/09/25 06:07:05;;;;;;;10.05;7.28;;;16.90;99.90;;;;;;5032299;28;20021;-81
2021/09/25 06:09:31;;;;;;;11.32;6.45;;;16.90;99.90;;;;;;5034092;28;20456;-79
2021/09/25 06:11:56;;;;;;;9.07;6.82;;;16.90;99.90;;;;;;5034386;28;20108;-78
2021/09/25 06:14:22;;;;;;;6.93;5.90;;;16.90;99.90;;;;;;5052805;28;20029;-78
2021/09/25 06:16:48;;;;;;;8.30;6.18;;;16.90;99.90;;;;;;5034146;28;20516;-77
2021/09/25 06:19:14;;;;;;;6.38;5.78;;;16.90;99.90;;;;;;5034201;28;20052;-78
2021/09/25 06:21:41;;;;;;;8.60;6.80;;;16.90;99.90;;;;;;5052342;28;20033;-79
2021/09/25 06:24:07;;;;;;;7.10;5.80;;;16.90;99.90;;;;;;5051678;28;20029;-79
2021/09/25 06:26:32;;;;;;;6.60;5.45;;;16.90;99.90;;;;;;5052607;28;20016;-80
2021/09/25 06:28:58;;;;;;;7.55;5.53;;;16.90;99.90;;;;;;5052040;28;20031;-79
2021/09/25 06:31:23;;;;;;;7.68;6.22;;;16.90;99.90;;;;;;5034185;28;20021;-81
2021/09/25 06:33:49;;;;;;;7.32;6.50;;;16.90;99.90;;;;;;5052569;28;20538;-78
2021/09/25 06:36:15;;;;;;;7.68;5.97;;;16.90;99.90;;;;;;5051523;28;20537;-80
2021/09/25 06:38:41;;;;;;;7.63;5.82;;;16.90;99.90;;;;;;5034542;28;20060;-83
2021/09/25 06:41:06;;;;;;;7.38;6.30;;;16.90;99.90;;;;;;5052185;28;20082;-84
2021/09/25 06:43:33;;;;;;;7.50;6.22;;;16.90;99.90;;;;;;5051929;28;20083;-81
2021/09/25 06:45:58;;;;;;;6.28;5.32;;;17.00;99.90;;;;;;5033959;28;20025;-84
2021/09/25 06:48:24;;;;;;;6.45;5.70;;;17.00;99.90;;;;;;5034529;28;20021;-82
2021/09/25 06:50:50;;;;;;;6.70;5.95;;;17.00;99.90;;;;;;5051860;28;20025;-83
2021/09/25 06:53:15;;;;;;;7.57;5.80;;;17.00;99.90;;;;;;5033950;28;20021;-85
2021/09/25 06:55:41;;;;;;;10.10;6.00;;;17.00;99.90;;;;;;5052247;28;20028;-83
2021/09/25 06:58:06;;;;;;;7.13;6.07;;;17.10;99.90;;;;;;5033438;28;20078;-80
2021/09/25 07:00:33;;;;;;;8.23;5.72;;;17.10;99.90;;;;;;5034559;28;20090;-80
2021/09/25 07:02:59;;;;;;;7.68;6.38;;;17.10;99.90;;;;;;5033832;28;20549;-82
2021/09/25 07:05:25;;;;;;;7.70;6.53;;;17.20;99.90;;;;;;5034045;28;20021;-77
2021/09/25 07:07:50;;;;;;;8.95;7.57;;;17.20;99.90;;;;;;5034309;28;20021;-83
2021/09/25 07:10:17;;;;;;;7.63;5.90;;;17.20;99.90;;;;;;5033964;28;20465;-80
2021/09/25 07:12:43;;;;;;;6.30;5.60;;;17.20;99.90;;;;;;5033664;28;20401;-82
2021/09/25 07:15:10;;;;;;;7.25;5.93;;;17.30;99.90;;;;;;5033828;28;20017;-81
2021/09/25 07:17:35;;;;;;;7.40;6.57;;;17.30;99.90;;;;;;5033989;28;20060;-81
2021/09/25 07:20:01;;;;;;;6.97;6.07;;;17.30;99.90;;;;;;5032740;28;20077;-78
2021/09/25 07:22:27;;;;;;;9.05;6.20;;;17.40;99.90;;;;;;5034356;28;20477;-76
2021/09/25 07:24:55;;;;;;;6.60;5.72;;;17.40;99.90;;;;;;5051485;28;20078;-79
2021/09/25 07:27:24;;;;;;;8.93;6.43;;;17.40;99.90;;;;;;5033521;28;20036;-81
2021/09/25 07:29:51;;;;;;;8.30;6.75;;;17.50;99.90;;;;;;5034086;28;20016;-81
2021/09/25 07:32:17;;;;;;;7.25;6.10;;;17.50;99.90;;;;;;5033899;28;20021;-81
2021/09/25 07:34:43;;;;;;;7.78;6.43;;;17.50;99.90;;;;;;5033435;28;20014;-81
2021/09/25 07:37:08;;;;;;;8.63;7.45;;;17.50;99.90;;;;;;5051401;28;20040;-80
2021/09/25 07:39:34;;;;;;;8.98;7.07;;;17.60;99.90;;;;;;5033820;28;20441;-83
2021/09/25 07:42:01;;;;;;;9.38;6.95;;;17.60;99.90;;;;;;5028428;28;20079;-83
2021/09/25 07:44:27;;;;;;;8.13;6.88;;;17.60;99.90;;;;;;5026564;28;20033;-77
2021/09/25 07:46:53;;;;;;;9.00;7.90;;;17.70;99.90;;;;;;5027227;28;20017;-81
2021/09/25 07:49:19;;;;;;;8.90;7.70;;;17.60;99.90;;;;;;5026952;28;20549;-80
2021/09/25 07:51:44;;;;;;;8.52;6.90;;;17.60;99.90;;;;;;5044125;28;20108;-78
2021/09/25 07:54:10;;;;;;;8.13;6.40;;;17.60;99.90;;;;;;5021553;28;20032;-81
2021/09/25 07:56:36;;;;;;;8.25;7.10;;;17.60;99.90;;;;;;5041771;28;20078;-79
2021/09/25 07:59:02;;;;;;;12.82;6.82;;;17.60;99.90;;;;;;5037071;28;20028;-83
2021/09/25 08:01:28;;;;;;;10.48;7.78;;;17.60;99.90;;;;;;5053174;28;20094;-82
2021/09/25 08:03:54;;;;;;;9.65;7.25;;;17.60;99.90;;;;;;5017591;28;20112;-81
2021/09/25 08:06:22;;;;;;;8.40;7.43;;;17.60;99.90;;;;;;5035148;28;20103;-83
2021/09/25 08:08:47;;;;;;;9.30;7.68;;;17.60;99.90;;;;;;5034749;28;20132;-78
2021/09/25 08:11:13;;;;;;;12.40;8.23;;;17.70;99.90;;;;;;5016857;28;20122;-81
2021/09/25 08:13:39;;;;;;;10.70;6.90;;;17.70;99.90;;;;;;5036691;28;20216;-79
2021/09/25 08:16:05;;;;;;;9.00;6.82;;;17.70;99.90;;;;;;5053471;28;20029;-79
2021/09/25 08:18:31;;;;;;;9.77;7.28;;;17.80;99.90;;;;;;5019272;28;20033;-80
2021/09/25 08:20:57;;;;;;;8.70;6.38;;;17.80;99.90;;;;;;5035674;28;20045;-80
2021/09/25 08:23:23;;;;;;;10.48;6.88;;;17.90;99.90;;;;;;5016621;28;20520;-78
2021/09/25 08:25:49;;;;;;;8.38;7.07;;;17.90;99.90;;;;;;5017004;28;20057;-79
2021/09/25 08:28:15;;;;;;;8.65;7.28;;;18.00;99.90;;;;;;5016835;28;20367;-82
2021/09/25 08:30:41;;;;;;;8.90;7.03;;;18.00;99.90;;;;;;5016151;28;20022;-79
2021/09/25 08:33:07;;;;;;;9.40;7.20;;;18.00;99.90;;;;;;5017029;28;20029;-80
2021/09/25 08:35:33;;;;;;;9.43;6.82;;;18.00;99.90;;;;;;5033683;28;20029;-81
2021/09/25 08:37:58;;;;;;;11.18;7.63;;;18.00;99.90;;;;;;5015222;28;20120;-77
2021/09/25 08:40:24;;;;;;;9.63;7.97;;;18.10;99.90;;;;;;5013924;28;20574;-82
2021/09/25 08:42:51;;;;;;;12.05;8.48;;;18.10;99.90;;;;;;5033061;28;20083;-77
2021/09/25 08:45:18;;;;;;;9.10;6.88;;;18.10;99.90;;;;;;5016127;28;20052;-76
2021/09/25 08:47:44;;;;;;;10.07;7.72;;;18.10;99.90;;;;;;5016969;28;20108;-78
2021/09/25 08:50:12;;;;;;;9.50;7.05;;;18.10;99.90;;;;;;5014440;28;20108;-79
2021/09/25 08:52:38;;;;;;;8.93;7.55;;;18.10;99.90;;;;;;5034818;28;20054;-78
2021/09/25 08:55:05;;;;;;;10.88;8.27;;;18.20;99.90;;;;;;5013385;28;20075;-77
2021/09/25 08:57:31;;;;;;;8.35;6.03;;;18.20;99.90;;;;;;5032405;28;20425;-79
2021/09/25 09:00:24;;;;;;;9.13;7.50;;;18.20;99.90;;;;;;5015621;28;20030;-78
2021/09/25 09:02:51;;;;;;;12.38;8.27;;;18.30;99.90;;;;;;5034094;28;20389;-78
2021/09/25 09:05:27;;;;;;;12.82;7.80;;;18.30;99.90;;;;;;5015370;28;20063;-77
2021/09/25 09:07:53;;;;;;;8.73;7.45;;;18.40;99.90;;;;;;5015458;28;20026;-78
2021/09/25 09:10:18;;;;;;;8.88;7.97;;;18.40;99.90;;;;;;5018904;28;20014;-76
2021/09/25 09:12:44;;;;;;;9.40;7.18;;;18.40;99.90;;;;;;5022092;28;20064;-77
2021/09/25 09:15:10;;;;;;;8.48;7.32;;;18.30;99.90;;;;;;5013814;28;20029;-78
2021/09/25 09:17:36;;;;;;;9.40;7.60;;;18.40;99.90;;;;;;5015096;28;20033;-78
2021/09/25 09:20:09;;;;;;;9.73;7.00;;;18.40;99.90;;;;;;5011030;28;20049;-76
2021/09/25 09:22:35;;;;;;;10.82;7.97;;;18.40;99.90;;;;;;5014967;28;20106;-76
2021/09/25 09:25:06;;;;;;;9.65;7.70;;;18.40;99.90;;;;;;5024478;28;20049;-75
2021/09/25 09:27:32;;;;;;;8.18;7.10;;;18.50;99.90;;;;;;5015656;28;20056;-76
2021/09/25 09:30:12;;;;;;;7.97;7.10;;;18.50;99.90;;;;;;5016191;28;20021;-75
2021/09/25 09:32:45;;;;;;;9.18;7.15;;;18.60;99.90;;;;;;5013068;28;20498;-77
2021/09/25 09:35:14;;;;;;;8.20;6.85;;;18.60;99.90;;;;;;5011995;28;20810;-75
2021/09/25 09:37:39;;;;;;;12.50;7.55;;;18.60;99.90;;;;;;5013294;28;20030;-77
2021/09/25 09:40:08;;;;;;;8.60;7.70;;;18.70;99.90;;;;;;5011142;28;20109;-76
2021/09/25 09:42:47;;;;;;;8.48;7.47;;;18.70;99.90;;;;;;5028822;28;20040;-76
2021/09/25 09:45:31;;;;;;;8.77;7.57;;;18.80;99.90;;;;;;5032598;28;20615;-77
2021/09/25 09:47:59;;;;;;;12.77;8.43;;;18.80;99.90;;;;;;5030633;28;20025;-78
2021/09/25 09:50:28;;;;;;;9.35;7.90;;;18.80;99.90;;;;;;5031719;28;20393;-77
2021/09/25 09:52:53;;;;;;;10.82;8.85;;;18.90;99.90;;;;;;5031360;28;20394;-77
2021/09/25 09:55:23;;;;;;;9.18;7.63;;;18.90;99.90;;;;;;5032027;28;20029;-78
2021/09/25 09:58:00;;;;;;;10.95;8.68;;;18.90;99.90;;;;;;5031667;28;20022;-77
2021/09/25 10:00:26;;;;;;;9.95;8.27;;;18.90;99.90;;;;;;5031100;28;20025;-79
2021/09/25 10:02:53;;;;;;;13.00;9.13;;;19.00;99.90;;;;;;5030768;28;20359;-78
2021/09/25 10:05:18;;;;;;;11.75;9.82;;;19.00;99.90;;;;;;5032627;28;20021;-77
2021/09/25 10:07:44;;;;;;;11.23;9.05;;;19.00;99.90;;;;;;5031255;28;20030;-77
2021/09/25 10:10:10;;;;;;;10.63;8.75;;;19.00;99.90;;;;;;5032294;28;20462;-78
2021/09/25 10:12:36;;;;;;;10.85;8.93;;;19.10;99.90;;;;;;5031591;28;20021;-77
2021/09/25 10:15:04;;;;;;;13.90;9.70;;;19.10;99.90;;;;;;5025546;28;20025;-76
2021/09/25 10:17:30;;;;;;;11.82;9.75;;;19.20;99.90;;;;;;5030163;28;20052;-77
2021/09/25 10:19:56;;;;;;;10.45;8.73;;;19.20;99.90;;;;;;5027273;28;20037;-74
2021/09/25 10:22:27;;;;;;;10.80;8.95;;;19.30;99.90;;;;;;5043956;28;20409;-77
2021/09/25 10:24:54;;;;;;;10.45;8.73;;;19.30;99.90;;;;;;5026211;28;20033;-77
2021/09/25 10:27:21;;;;;;;10.05;9.00;;;19.40;99.90;;;;;;5026188;28;20051;-77
2021/09/25 10:29:51;;;;;;;13.88;10.07;;;19.40;99.90;;;;;;5050406;28;20433;-78
2021/09/25 10:32:26;;;;;;;10.77;8.18;;;19.40;99.90;;;;;;5032402;28;20025;-77
2021/09/25 10:35:09;;;;;;;10.68;8.68;;;19.40;99.90;;;;;;5052070;28;20432;-75
2021/09/25 10:37:42;;;;;;;9.45;8.07;;;19.50;99.90;;;;;;5049701;28;20033;-75
2021/09/25 10:40:15;;;;;;;8.25;7.05;;;19.50;99.90;;;;;;5033169;28;20041;-78
2021/09/25 10:42:49;;;;;;;8.25;7.45;;;19.60;99.90;;;;;;5015825;28;20049;-74
2021/09/25 10:45:38;;;;;;;10.23;8.20;;;19.70;99.90;;;;;;5025608;28;20025;-76
2021/09/25 10:48:03;;;;;;;8.85;7.47;;;19.70;99.90;;;;;;5037250;28;20053;-76
2021/09/25 10:50:29;;;;;;;10.20;8.15;;;19.80;99.90;;;;;;5028345;28;20480;-75
2021/09/25 10:53:07;;;;;;;12.05;8.32;;;19.80;99.90;;;;;;5031752;28;20021;-77
2021/09/25 10:55:36;;;;;;;12.73;9.05;;;19.80;99.90;;;;;;5020022;28;20030;-77
2021/09/25 10:58:23;;;;;;;15.00;9.70;;;19.90;99.90;;;;;;5049444;28;20040;-80
2021/09/25 11:00:57;;;;;;;12.15;8.63;;;19.90;99.90;;;;;;5023888;28;20037;-79
2021/09/25 11:03:46;;;;;;;10.85;7.93;;;20.00;99.90;;;;;;5018473;28;20025;-80
2021/09/25 11:06:11;;;;;;;10.70;8.80;;;20.00;99.90;;;;;;5013646;28;20107;-76
2021/09/25 11:08:39;;;;;;;9.88;8.80;;;20.00;99.90;;;;;;5036400;28;20017;-78
2021/09/25 11:11:10;;;;;;;10.48;9.00;;;20.00;99.90;;;;;;5013076;28;20022;-77
2021/09/25 11:14:01;;;;;;;12.70;9.38;;;20.10;99.90;;;;;;5015660;28;20100;-81
2021/09/25 11:16:46;;;;;;;;;;;20.10;99.90;;;;;;5040891;28;20489;-77
2021/09/25 11:19:28;;;;;;;10.55;8.77;;;20.20;99.90;;;;;;5018839;28;19917;-79
2021/09/25 11:22:34;;;;;;;9.75;8.25;;;20.20;99.90;;;;;;5025390;28;20041;-79
2021/09/25 11:25:14;;;;;;;11.13;8.10;;;20.20;99.90;;;;;;5017475;28;20013;-80
2021/09/25 11:27:43;;;;;;;11.43;8.30;;;20.30;99.90;;;;;;5017038;28;20075;-76
2021/09/25 11:30:11;;;;;;;10.20;8.30;;;20.30;99.90;;;;;;5020651;28;20025;-76
2021/09/25 11:32:53;;;;;;;15.38;11.73;;;20.40;99.90;;;;;;5035783;28;20052;-78
2021/09/25 11:35:26;;;;;;;10.93;8.55;;;20.40;99.90;;;;;;5036849;28;20039;-82
2021/09/25 11:38:00;;;;;;;10.25;8.77;;;20.40;99.90;;;;;;5032957;28;20104;-77
2021/09/25 11:40:29;;;;;;;13.60;10.65;;;20.40;99.90;;;;;;5034781;28;20588;-78
2021/09/25 11:43:11;;;;;;;11.85;9.75;;;20.40;99.90;;;;;;5042600;28;20033;-81
2021/09/25 11:45:43;;;;;;;11.35;9.63;;;20.50;99.90;;;;;;5037310;28;20075;-78
2021/09/25 11:48:12;;;;;;;12.35;9.60;;;20.50;99.90;;;;;;5054978;28;20064;-78
2021/09/25 11:50:46;;;;;;;11.23;10.02;;;20.50;99.90;;;;;;5037200;28;20088;-80
2021/09/25 11:53:17;;;;;;;9.55;8.55;;;20.60;99.90;;;;;;5022558;28;20030;-79
2021/09/25 11:55:45;;;;;;;10.05;8.98;;;20.60;99.90;;;;;;5028571;28;20033;-81
2021/09/25 11:58:14;;;;;;;11.95;10.65;;;20.70;99.90;;;;;;5046645;28;20029;-78
2021/09/25 12:00:49;;;;;;;12.38;10.50;;;20.70;99.90;;;;;;5023348;28;20056;-82
2021/09/25 12:03:17;;;;;;;10.68;9.20;;;20.80;99.90;;;;;;5039926;28;20160;-78
2021/09/25 12:05:53;;;;;;;11.40;10.18;;;20.80;99.90;;;;;;5031885;28;20044;-74
2021/09/25 12:08:27;;;;;;;12.30;10.00;;;20.90;99.90;;;;;;5043973;28;20025;-77
2021/09/25 12:11:06;;;;;;;12.90;11.32;;;20.90;99.90;;;;;;5035865;28;20028;-77
2021/09/25 12:13:39;;;;;;;13.10;11.20;;;20.90;99.90;;;;;;5046352;28;20472;-80
2021/09/25 12:16:19;;;;;;;13.63;10.30;;;21.00;99.90;;;;;;5040809;28;20028;-77
2021/09/25 12:18:47;;;;;;;12.25;9.73;;;21.10;99.90;;;;;;5023193;28;20053;-78
2021/09/25 12:21:14;;;;;;;12.52;10.70;;;21.10;99.90;;;;;;5053050;28;20051;-78
2021/09/25 12:23:42;;;;;;;11.95;10.68;;;21.10;99.90;;;;;;5037200;28;20021;-79
2021/09/25 12:26:10;;;;;;;12.38;9.73;;;21.20;99.90;;;;;;5036063;28;20021;-77
2021/09/25 12:28:46;;;;;;;10.05;8.82;;;21.20;99.90;;;;;;5036555;28;20040;-77
2021/09/25 12:31:30;;;;;;;10.85;9.52;;;21.20;99.90;;;;;;5036494;28;20036;-78
2021/09/25 12:33:59;;;;;;;11.07;9.35;;;21.30;99.90;;;;;;5054234;28;20021;-77
2021/09/25 12:36:34;;;;;;;12.88;11.57;;;21.30;99.90;;;;;;5053826;28;20032;-78
2021/09/25 12:39:04;;;;;;;13.45;10.75;;;21.30;99.90;;;;;;5036245;28;20053;-78
2021/09/25 12:41:30;;;;;;;12.93;10.23;;;21.30;99.90;;;;;;5036623;28;20029;-78
2021/09/25 12:43:58;;;;;;;10.82;9.48;;;21.30;99.90;;;;;;5053503;28;20079;-77
2021/09/25 12:46:40;;;;;;;11.50;9.73;;;21.30;99.90;;;;;;5036853;28;20044;-77